sensor_id;sensor_type;location;lat;lon;timestamp;P1;P2;P0
76049;PMS7003;64967;50.234;19.224;2023-08-06T00:01:30;17.33;16.67;11.67
76049;PMS7003;64967;50.234;19.224;2023-08-06T00:04:02;6.00;5.00;4.00
76049;PMS7003;64967;50.234;19.224;2023-08-06T00:06:51;5.67;5.67;5.00
76049;PMS7003;64967;50.234;19.224;2023-08-06T00:09:37;3.00;3.00;2.00
76049;PMS7003;64967;50.234;19.224;2023-08-06T00:12:26;4.33;3.67;3.00
76049;PMS7003;64967;50.234;19.224;2023-08-06T00:15:14;4.00;4.00;4.00
76049;PMS7003;64967;50.234;19.224;2023-08-06T00:17:58;4.00;4.00;3.00
76049;PMS7003;64967;50.234;19.224;2023-08-06T00:20:25;5.67;5.67;4.67
76049;PMS7003;64967;50.234;19.224;2023-08-06T00:22:52;3.00;3.00;2.67
76049;PMS7003;64967;50.234;19.224;2023-08-06T00:25:19;4.67;3.67;3.33
76049;PMS7003;64967;50.234;19.224;2023-08-06T00:27:49;3.33;3.33;2.67
76049;PMS7003;64967;50.234;19.224;2023-08-06T00:30:16;3.00;3.00;3.00
76049;PMS7003;64967;50.234;19.224;2023-08-06T00:32:43;1.33;1.00;1.00
76049;PMS7003;64967;50.234;19.224;2023-08-06T00:35:11;1.67;1.67;1.00
76049;PMS7003;64967;50.234;19.224;2023-08-06T00:37:40;4.33;3.33;3.00
76049;PMS7003;64967;50.234;19.224;2023-08-06T00:40:07;7.67;6.00;5.00
76049;PMS7003;64967;50.234;19.224;2023-08-06T00:42:35;4.00;4.00;4.00
76049;PMS7003;64967;50.234;19.224;2023-08-06T00:45:02;5.00;5.00;4.00
76049;PMS7003;64967;50.234;19.224;2023-08-06T00:47:29;11.33;11.33;9.67
76049;PMS7003;64967;50.234;19.224;2023-08-06T00:49:57;12.33;9.00;7.00
76049;PMS7003;64967;50.234;19.224;2023-08-06T00:52:24;7.00;4.00;4.00
76049;PMS7003;64967;50.234;19.224;2023-08-06T00:54:52;5.67;5.00;4.33
76049;PMS7003;64967;50.234;19.224;2023-08-06T00:57:19;6.00;4.67;4.33
76049;PMS7003;64967;50.234;19.224;2023-08-06T00:59:49;4.00;4.00;3.00
76049;PMS7003;64967;50.234;19.224;2023-08-06T01:02:17;5.67;5.00;4.33
76049;PMS7003;64967;50.234;19.224;2023-08-06T01:04:44;11.33;10.33;8.33
76049;PMS7003;64967;50.234;19.224;2023-08-06T01:16:17;7.33;6.33;5.67
76049;PMS7003;64967;50.234;19.224;2023-08-06T01:19:02;7.00;7.00;5.67
76049;PMS7003;64967;50.234;19.224;2023-08-06T01:21:52;6.00;6.00;5.00
76049;PMS7003;64967;50.234;19.224;2023-08-06T01:24:20;5.00;3.67;3.00
76049;PMS7003;64967;50.234;19.224;2023-08-06T01:26:55;4.00;3.33;3.00
76049;PMS7003;64967;50.234;19.224;2023-08-06T01:29:39;4.67;4.67;4.00
76049;PMS7003;64967;50.234;19.224;2023-08-06T01:32:11;9.33;8.00;6.00
76049;PMS7003;64967;50.234;19.224;2023-08-06T01:34:41;6.00;5.67;4.00
76049;PMS7003;64967;50.234;19.224;2023-08-06T01:37:11;5.00;5.00;4.00
76049;PMS7003;64967;50.234;19.224;2023-08-06T01:39:39;3.33;3.33;2.33
76049;PMS7003;64967;50.234;19.224;2023-08-06T01:42:09;4.00;3.67;2.67
76049;PMS7003;64967;50.234;19.224;2023-08-06T01:44:36;4.33;4.33;4.00
76049;PMS7003;64967;50.234;19.224;2023-08-06T01:47:03;4.33;4.00;4.00
76049;PMS7003;64967;50.234;19.224;2023-08-06T01:49:30;13.33;11.67;9.00
76049;PMS7003;64967;50.234;19.224;2023-08-06T01:51:57;7.67;6.67;5.00
76049;PMS7003;64967;50.234;19.224;2023-08-06T01:54:24;6.00;5.00;4.00
76049;PMS7003;64967;50.234;19.224;2023-08-06T01:56:51;6.33;6.00;5.00
76049;PMS7003;64967;50.234;19.224;2023-08-06T01:59:19;7.00;7.00;6.00
76049;PMS7003;64967;50.234;19.224;2023-08-06T02:01:46;4.00;4.00;3.33
76049;PMS7003;64967;50.234;19.224;2023-08-06T02:04:13;6.33;6.33;6.00
76049;PMS7003;64967;50.234;19.224;2023-08-06T02:06:40;4.67;3.00;2.33
76049;PMS7003;64967;50.234;19.224;2023-08-06T02:09:07;8.33;7.33;6.00
76049;PMS7003;64967;50.234;19.224;2023-08-06T02:11:34;13.33;12.00;10.00
76049;PMS7003;64967;50.234;19.224;2023-08-06T02:14:01;8.67;7.00;7.00
76049;PMS7003;64967;50.234;19.224;2023-08-06T02:16:28;7.00;7.00;5.67
76049;PMS7003;64967;50.234;19.224;2023-08-06T02:18:55;5.67;4.33;3.67
76049;PMS7003;64967;50.234;19.224;2023-08-06T02:21:22;8.67;8.67;7.00
76049;PMS7003;64967;50.234;19.224;2023-08-06T02:23:49;6.33;6.33;5.67
76049;PMS7003;64967;50.234;19.224;2023-08-06T02:26:16;11.00;11.00;8.33
76049;PMS7003;64967;50.234;19.224;2023-08-06T02:28:44;9.00;9.00;8.00
76049;PMS7003;64967;50.234;19.224;2023-08-06T02:31:11;7.00;7.00;6.00
76049;PMS7003;64967;50.234;19.224;2023-08-06T02:33:38;5.33;5.33;4.00
76049;PMS7003;64967;50.234;19.224;2023-08-06T02:36:05;11.00;10.00;8.00
76049;PMS7003;64967;50.234;19.224;2023-08-06T02:38:32;15.33;14.67;10.67
76049;PMS7003;64967;50.234;19.224;2023-08-06T02:41:02;13.33;13.00;9.00
76049;PMS7003;64967;50.234;19.224;2023-08-06T02:43:30;16.33;14.00;11.00
76049;PMS7003;64967;50.234;19.224;2023-08-06T02:45:58;17.33;16.33;12.00
76049;PMS7003;64967;50.234;19.224;2023-08-06T02:48:26;9.00;9.00;7.00
76049;PMS7003;64967;50.234;19.224;2023-08-06T02:50:56;6.00;6.00;5.00
76049;PMS7003;64967;50.234;19.224;2023-08-06T02:53:24;5.33;5.33;4.33
76049;PMS7003;64967;50.234;19.224;2023-08-06T02:55:51;5.33;4.33;3.33
76049;PMS7003;64967;50.234;19.224;2023-08-06T02:58:18;3.67;3.67;3.67
76049;PMS7003;64967;50.234;19.224;2023-08-06T03:01:01;3.67;3.67;3.00
76049;PMS7003;64967;50.234;19.224;2023-08-06T03:03:30;3.67;3.00;3.00
76049;PMS7003;64967;50.234;19.224;2023-08-06T03:05:58;2.33;2.00;2.00
76049;PMS7003;64967;50.234;19.224;2023-08-06T03:08:25;6.00;5.00;3.00
76049;PMS7003;64967;50.234;19.224;2023-08-06T03:10:52;3.67;3.67;3.00
76049;PMS7003;64967;50.234;19.224;2023-08-06T03:13:19;18.00;16.33;12.33
76049;PMS7003;64967;50.234;19.224;2023-08-06T03:15:55;17.00;15.33;12.00
76049;PMS7003;64967;50.234;19.224;2023-08-06T03:18:24;19.67;18.67;12.00
76049;PMS7003;64967;50.234;19.224;2023-08-06T03:20:52;17.33;15.67;12.00
76049;PMS7003;64967;50.234;19.224;2023-08-06T03:23:20;21.33;19.67;13.00
76049;PMS7003;64967;50.234;19.224;2023-08-06T03:25:47;22.50;20.25;14.00
76049;PMS7003;64967;50.234;19.224;2023-08-06T03:28:14;16.00;15.33;11.67
76049;PMS7003;64967;50.234;19.224;2023-08-06T03:30:41;14.00;11.00;8.67
76049;PMS7003;64967;50.234;19.224;2023-08-06T03:33:09;7.00;7.00;5.00
76049;PMS7003;64967;50.234;19.224;2023-08-06T03:35:36;6.00;6.00;5.00
76049;PMS7003;64967;50.234;19.224;2023-08-06T03:38:03;8.67;8.00;7.00
76049;PMS7003;64967;50.234;19.224;2023-08-06T03:40:30;12.00;12.00;8.00
76049;PMS7003;64967;50.234;19.224;2023-08-06T03:42:57;10.00;8.00;6.00
76049;PMS7003;64967;50.234;19.224;2023-08-06T03:45:24;8.33;7.00;5.67
76049;PMS7003;64967;50.234;19.224;2023-08-06T03:47:51;5.67;4.67;3.33
76049;PMS7003;64967;50.234;19.224;2023-08-06T03:50:18;4.67;4.67;4.33
76049;PMS7003;64967;50.234;19.224;2023-08-06T03:52:45;4.67;4.67;3.67
76049;PMS7003;64967;50.234;19.224;2023-08-06T03:55:12;3.33;3.33;3.00
76049;PMS7003;64967;50.234;19.224;2023-08-06T03:57:39;4.00;3.00;2.00
76049;PMS7003;64967;50.234;19.224;2023-08-06T04:00:07;4.00;4.00;3.00
76049;PMS7003;64967;50.234;19.224;2023-08-06T04:02:34;3.00;3.00;2.00
76049;PMS7003;64967;50.234;19.224;2023-08-06T04:05:01;5.00;4.00;3.00
76049;PMS7003;64967;50.234;19.224;2023-08-06T04:07:28;3.00;3.00;2.00
76049;PMS7003;64967;50.234;19.224;2023-08-06T04:09:59;1.33;1.33;1.00
76049;PMS7003;64967;50.234;19.224;2023-08-06T04:12:30;3.00;2.33;2.00
76049;PMS7003;64967;50.234;19.224;2023-08-06T04:15:00;3.33;2.33;2.00
76049;PMS7003;64967;50.234;19.224;2023-08-06T04:17:27;2.00;2.00;1.33
76049;PMS7003;64967;50.234;19.224;2023-08-06T04:19:54;4.00;3.33;3.00
76049;PMS7003;64967;50.234;19.224;2023-08-06T04:22:24;6.33;5.67;5.33
76049;PMS7003;64967;50.234;19.224;2023-08-06T04:24:51;3.00;3.00;2.67
76049;PMS7003;64967;50.234;19.224;2023-08-06T04:27:18;5.33;5.33;4.67
76049;PMS7003;64967;50.234;19.224;2023-08-06T04:29:46;2.67;2.67;1.67
76049;PMS7003;64967;50.234;19.224;2023-08-06T04:32:13;4.67;4.67;4.00
76049;PMS7003;64967;50.234;19.224;2023-08-06T04:34:40;4.00;4.00;3.00
76049;PMS7003;64967;50.234;19.224;2023-08-06T04:37:07;3.00;2.67;2.67
76049;PMS7003;64967;50.234;19.224;2023-08-06T04:39:34;4.33;4.00;3.33
76049;PMS7003;64967;50.234;19.224;2023-08-06T04:42:02;5.67;5.00;4.00
76049;PMS7003;64967;50.234;19.224;2023-08-06T04:44:29;5.00;4.00;3.00
76049;PMS7003;64967;50.234;19.224;2023-08-06T04:46:56;1.33;1.33;1.00
76049;PMS7003;64967;50.234;19.224;2023-08-06T04:49:23;1.33;1.33;1.00
76049;PMS7003;64967;50.234;19.224;2023-08-06T04:51:52;3.00;3.00;3.00
76049;PMS7003;64967;50.234;19.224;2023-08-06T04:54:20;5.00;5.00;4.00
76049;PMS7003;64967;50.234;19.224;2023-08-06T04:56:47;4.33;3.33;2.33
76049;PMS7003;64967;50.234;19.224;2023-08-06T04:59:14;3.33;3.33;2.33
76049;PMS7003;64967;50.234;19.224;2023-08-06T05:01:41;3.67;3.67;3.67
76049;PMS7003;64967;50.234;19.224;2023-08-06T05:04:08;5.33;5.33;4.67
76049;PMS7003;64967;50.234;19.224;2023-08-06T05:06:35;6.00;6.00;5.00
76049;PMS7003;64967;50.234;19.224;2023-08-06T05:09:04;5.67;5.33;4.00
76049;PMS7003;64967;50.234;19.224;2023-08-06T05:11:32;6.67;5.33;4.33
76049;PMS7003;64967;50.234;19.224;2023-08-06T05:13:59;7.67;5.33;4.33
76049;PMS7003;64967;50.234;19.224;2023-08-06T05:16:26;7.33;7.00;5.67
76049;PMS7003;64967;50.234;19.224;2023-08-06T05:18:54;5.00;4.00;3.33
76049;PMS7003;64967;50.234;19.224;2023-08-06T05:21:21;7.67;5.00;4.00
76049;PMS7003;64967;50.234;19.224;2023-08-06T05:23:48;4.33;3.67;2.67
76049;PMS7003;64967;50.234;19.224;2023-08-06T05:26:17;4.00;4.00;3.00
76049;PMS7003;64967;50.234;19.224;2023-08-06T05:28:45;2.67;2.33;2.00
76049;PMS7003;64967;50.234;19.224;2023-08-06T05:31:13;5.00;5.00;3.67
76049;PMS7003;64967;50.234;19.224;2023-08-06T05:33:40;5.00;5.00;4.00
76049;PMS7003;64967;50.234;19.224;2023-08-06T05:36:07;6.00;4.67;4.00
76049;PMS7003;64967;50.234;19.224;2023-08-06T05:38:34;5.67;5.67;4.67
76049;PMS7003;64967;50.234;19.224;2023-08-06T05:41:01;6.67;6.33;4.33
76049;PMS7003;64967;50.234;19.224;2023-08-06T05:43:29;6.00;5.00;4.67
76049;PMS7003;64967;50.234;19.224;2023-08-06T05:45:56;4.00;4.00;4.00
76049;PMS7003;64967;50.234;19.224;2023-08-06T05:48:24;5.00;4.00;3.00
76049;PMS7003;64967;50.234;19.224;2023-08-06T05:50:51;4.33;4.33;4.00
76049;PMS7003;64967;50.234;19.224;2023-08-06T05:53:19;7.00;7.00;5.33
76049;PMS7003;64967;50.234;19.224;2023-08-06T05:55:46;3.00;3.00;2.33
76049;PMS7003;64967;50.234;19.224;2023-08-06T05:58:14;4.67;4.67;4.33
76049;PMS7003;64967;50.234;19.224;2023-08-06T06:00:41;6.67;6.00;4.00
76049;PMS7003;64967;50.234;19.224;2023-08-06T06:03:08;8.33;7.00;5.67
76049;PMS7003;64967;50.234;19.224;2023-08-06T06:05:37;8.33;8.33;7.00
76049;PMS7003;64967;50.234;19.224;2023-08-06T06:08:05;7.33;7.00;6.00
76049;PMS7003;64967;50.234;19.224;2023-08-06T06:10:32;8.00;7.00;5.00
76049;PMS7003;64967;50.234;19.224;2023-08-06T06:13:00;10.00;8.67;7.00
76049;PMS7003;64967;50.234;19.224;2023-08-06T06:15:27;5.67;4.00;3.00
76049;PMS7003;64967;50.234;19.224;2023-08-06T06:17:54;6.00;6.00;4.67
76049;PMS7003;64967;50.234;19.224;2023-08-06T06:20:21;5.33;4.67;3.33
76049;PMS7003;64967;50.234;19.224;2023-08-06T06:22:48;5.67;5.67;4.00
76049;PMS7003;64967;50.234;19.224;2023-08-06T06:25:15;6.00;5.00;4.00
76049;PMS7003;64967;50.234;19.224;2023-08-06T06:27:42;7.00;5.67;5.00
76049;PMS7003;64967;50.234;19.224;2023-08-06T06:30:10;7.00;6.00;4.67
76049;PMS7003;64967;50.234;19.224;2023-08-06T06:32:38;5.33;5.00;4.00
76049;PMS7003;64967;50.234;19.224;2023-08-06T06:35:14;7.33;6.00;5.00
76049;PMS7003;64967;50.234;19.224;2023-08-06T06:37:42;6.00;6.00;4.33
76049;PMS7003;64967;50.234;19.224;2023-08-06T06:46:27;1.00;1.00;1.00
76049;PMS7003;64967;50.234;19.224;2023-08-06T06:48:54;1.00;1.00;1.00
76049;PMS7003;64967;50.234;19.224;2023-08-06T07:11:33;0.00;0.00;0.00
76049;PMS7003;64967;50.234;19.224;2023-08-06T08:55:37;0.00;0.00;0.00
76049;PMS7003;64967;50.234;19.224;2023-08-06T09:01:28;0.00;0.00;0.00
76049;PMS7003;64967;50.234;19.224;2023-08-06T09:04:12;0.00;0.00;0.00
76049;PMS7003;64967;50.234;19.224;2023-08-06T09:07:18;0.00;0.00;0.00
76049;PMS7003;64967;50.234;19.224;2023-08-06T09:10:20;0.00;0.00;0.00
76049;PMS7003;64967;50.234;19.224;2023-08-06T09:14:24;0.00;0.00;0.00
76049;PMS7003;64967;50.234;19.224;2023-08-06T09:17:29;0.00;0.00;0.00
76049;PMS7003;64967;50.234;19.224;2023-08-06T09:23:44;0.00;0.00;0.00
76049;PMS7003;64967;50.234;19.224;2023-08-06T09:26:59;1.00;0.00;0.00
76049;PMS7003;64967;50.234;19.224;2023-08-06T09:30:12;0.00;0.00;0.00
76049;PMS7003;64967;50.234;19.224;2023-08-06T09:33:34;0.00;0.00;0.00
76049;PMS7003;64967;50.234;19.224;2023-08-06T09:51:50;2.00;1.00;0.00
76049;PMS7003;64967;50.234;19.224;2023-08-06T09:55:18;0.00;0.00;0.00
76049;PMS7003;64967;50.234;19.224;2023-08-06T09:58:35;1.00;1.00;0.00
76049;PMS7003;64967;50.234;19.224;2023-08-06T10:02:17;2.00;1.00;1.00
76049;PMS7003;64967;50.234;19.224;2023-08-06T10:05:14;1.33;0.67;0.00
76049;PMS7003;64967;50.234;19.224;2023-08-06T10:08:01;0.00;0.00;0.00
76049;PMS7003;64967;50.234;19.224;2023-08-06T10:10:47;0.33;0.33;0.00
76049;PMS7003;64967;50.234;19.224;2023-08-06T10:13:21;1.00;1.00;0.00
76049;PMS7003;64967;50.234;19.224;2023-08-06T10:15:54;0.00;0.00;0.00
76049;PMS7003;64967;50.234;19.224;2023-08-06T10:18:30;0.67;0.67;0.00
76049;PMS7003;64967;50.234;19.224;2023-08-06T10:21:04;1.00;0.33;0.33
76049;PMS7003;64967;50.234;19.224;2023-08-06T10:24:01;0.00;0.00;0.00
76049;PMS7003;64967;50.234;19.224;2023-08-06T10:26:33;1.00;1.00;1.00
76049;PMS7003;64967;50.234;19.224;2023-08-06T10:29:03;0.00;0.00;0.00
76049;PMS7003;64967;50.234;19.224;2023-08-06T10:32:07;0.00;0.00;0.00
76049;PMS7003;64967;50.234;19.224;2023-08-06T10:34:58;1.00;0.00;0.00
76049;PMS7003;64967;50.234;19.224;2023-08-06T10:37:34;0.00;0.00;0.00
76049;PMS7003;64967;50.234;19.224;2023-08-06T10:40:07;0.00;0.00;0.00
76049;PMS7003;64967;50.234;19.224;2023-08-06T10:42:39;0.00;0.00;0.00
76049;PMS7003;64967;50.234;19.224;2023-08-06T10:45:11;0.00;0.00;0.00
76049;PMS7003;64967;50.234;19.224;2023-08-06T10:47:39;0.00;0.00;0.00
76049;PMS7003;64967;50.234;19.224;2023-08-06T10:50:16;0.00;0.00;0.00
76049;PMS7003;64967;50.234;19.224;2023-08-06T10:52:52;0.00;0.00;0.00
76049;PMS7003;64967;50.234;19.224;2023-08-06T10:55:26;0.00;0.00;0.00
76049;PMS7003;64967;50.234;19.224;2023-08-06T10:57:58;0.00;0.00;0.00
76049;PMS7003;64967;50.234;19.224;2023-08-06T11:00:25;0.00;0.00;0.00
76049;PMS7003;64967;50.234;19.224;2023-08-06T11:03:02;0.00;0.00;0.00
76049;PMS7003;64967;50.234;19.224;2023-08-06T11:05:35;0.00;0.00;0.00
76049;PMS7003;64967;50.234;19.224;2023-08-06T11:08:26;0.00;0.00;0.00
76049;PMS7003;64967;50.234;19.224;2023-08-06T11:14:00;0.00;0.00;0.00
76049;PMS7003;64967;50.234;19.224;2023-08-06T11:16:32;0.00;0.00;0.00
76049;PMS7003;64967;50.234;19.224;2023-08-06T11:19:22;0.00;0.00;0.00
76049;PMS7003;64967;50.234;19.224;2023-08-06T11:21:57;0.00;0.00;0.00
76049;PMS7003;64967;50.234;19.224;2023-08-06T11:24:27;0.00;0.00;0.00
76049;PMS7003;64967;50.234;19.224;2023-08-06T11:26:57;0.00;0.00;0.00
76049;PMS7003;64967;50.234;19.224;2023-08-06T11:29:52;0.00;0.00;0.00
76049;PMS7003;64967;50.234;19.224;2023-08-06T11:32:25;0.00;0.00;0.00
76049;PMS7003;64967;50.234;19.224;2023-08-06T11:34:59;0.00;0.00;0.00
76049;PMS7003;64967;50.234;19.224;2023-08-06T11:37:46;0.00;0.00;0.00
76049;PMS7003;64967;50.234;19.224;2023-08-06T11:40:18;0.00;0.00;0.00
76049;PMS7003;64967;50.234;19.224;2023-08-06T11:43:03;0.00;0.00;0.00
76049;PMS7003;64967;50.234;19.224;2023-08-06T11:45:37;0.00;0.00;0.00
76049;PMS7003;64967;50.234;19.224;2023-08-06T11:48:09;0.00;0.00;0.00
76049;PMS7003;64967;50.234;19.224;2023-08-06T11:50:37;0.00;0.00;0.00
76049;PMS7003;64967;50.234;19.224;2023-08-06T11:53:19;0.00;0.00;0.00
76049;PMS7003;64967;50.234;19.224;2023-08-06T11:55:52;0.00;0.00;0.00
76049;PMS7003;64967;50.234;19.224;2023-08-06T11:58:20;0.00;0.00;0.00
76049;PMS7003;64967;50.234;19.224;2023-08-06T12:00:47;0.00;0.00;0.00
76049;PMS7003;64967;50.234;19.224;2023-08-06T12:03:15;0.00;0.00;0.00
76049;PMS7003;64967;50.234;19.224;2023-08-06T12:05:53;0.00;0.00;0.00
76049;PMS7003;64967;50.234;19.224;2023-08-06T12:08:20;0.00;0.00;0.00
76049;PMS7003;64967;50.234;19.224;2023-08-06T12:11:23;0.00;0.00;0.00
76049;PMS7003;64967;50.234;19.224;2023-08-06T12:14:05;0.00;0.00;0.00
76049;PMS7003;64967;50.234;19.224;2023-08-06T12:16:56;0.00;0.00;0.00
76049;PMS7003;64967;50.234;19.224;2023-08-06T12:19:29;0.00;0.00;0.00
76049;PMS7003;64967;50.234;19.224;2023-08-06T12:22:09;0.00;0.00;0.00
76049;PMS7003;64967;50.234;19.224;2023-08-06T12:25:06;0.00;0.00;0.00
76049;PMS7003;64967;50.234;19.224;2023-08-06T12:28:00;0.00;0.00;0.00
76049;PMS7003;64967;50.234;19.224;2023-08-06T12:34:38;0.00;0.00;0.00
76049;PMS7003;64967;50.234;19.224;2023-08-06T12:38:14;0.00;0.00;0.00
76049;PMS7003;64967;50.234;19.224;2023-08-06T12:48:38;0.00;0.00;0.00
76049;PMS7003;64967;50.234;19.224;2023-08-06T12:51:39;0.00;0.00;0.00
76049;PMS7003;64967;50.234;19.224;2023-08-06T12:55:01;0.00;0.00;0.00
76049;PMS7003;64967;50.234;19.224;2023-08-06T12:57:31;0.00;0.00;0.00
76049;PMS7003;64967;50.234;19.224;2023-08-06T13:00:25;0.00;0.00;0.00
76049;PMS7003;64967;50.234;19.224;2023-08-06T13:03:52;0.00;0.00;0.00
76049;PMS7003;64967;50.234;19.224;2023-08-06T13:10:33;0.00;0.00;0.00
76049;PMS7003;64967;50.234;19.224;2023-08-06T13:13:46;0.00;0.00;0.00
76049;PMS7003;64967;50.234;19.224;2023-08-06T13:24:46;0.00;0.00;0.00
76049;PMS7003;64967;50.234;19.224;2023-08-06T13:27:53;0.00;0.00;0.00
76049;PMS7003;64967;50.234;19.224;2023-08-06T13:34:15;0.00;0.00;0.00
76049;PMS7003;64967;50.234;19.224;2023-08-06T13:37:29;0.00;0.00;0.00
76049;PMS7003;64967;50.234;19.224;2023-08-06T13:40:09;0.00;0.00;0.00
76049;PMS7003;64967;50.234;19.224;2023-08-06T13:43:03;0.00;0.00;0.00
76049;PMS7003;64967;50.234;19.224;2023-08-06T13:46:08;0.00;0.00;0.00
76049;PMS7003;64967;50.234;19.224;2023-08-06T13:48:38;0.00;0.00;0.00
76049;PMS7003;64967;50.234;19.224;2023-08-06T13:51:27;0.00;0.00;0.00
76049;PMS7003;64967;50.234;19.224;2023-08-06T14:16:14;0.00;0.00;0.00
76049;PMS7003;64967;50.234;19.224;2023-08-06T14:25:53;0.00;0.00;0.00
76049;PMS7003;64967;50.234;19.224;2023-08-06T14:34:28;0.00;0.00;0.00
76049;PMS7003;64967;50.234;19.224;2023-08-06T14:36:55;1.00;0.00;0.00
76049;PMS7003;64967;50.234;19.224;2023-08-06T14:39:22;0.00;0.00;0.00
76049;PMS7003;64967;50.234;19.224;2023-08-06T14:41:49;0.00;0.00;0.00
76049;PMS7003;64967;50.234;19.224;2023-08-06T14:44:16;0.00;0.00;0.00
76049;PMS7003;64967;50.234;19.224;2023-08-06T14:46:43;0.00;0.00;0.00
76049;PMS7003;64967;50.234;19.224;2023-08-06T14:49:10;0.00;0.00;0.00
76049;PMS7003;64967;50.234;19.224;2023-08-06T14:51:37;0.00;0.00;0.00
76049;PMS7003;64967;50.234;19.224;2023-08-06T14:54:05;0.00;0.00;0.00
76049;PMS7003;64967;50.234;19.224;2023-08-06T14:56:32;0.00;0.00;0.00
76049;PMS7003;64967;50.234;19.224;2023-08-06T14:58:59;0.00;0.00;0.00
76049;PMS7003;64967;50.234;19.224;2023-08-06T15:01:26;0.00;0.00;0.00
76049;PMS7003;64967;50.234;19.224;2023-08-06T15:03:53;0.00;0.00;0.00
76049;PMS7003;64967;50.234;19.224;2023-08-06T15:06:20;0.00;0.00;0.00
76049;PMS7003;64967;50.234;19.224;2023-08-06T15:08:47;1.00;0.00;0.00
76049;PMS7003;64967;50.234;19.224;2023-08-06T15:11:14;0.00;0.00;0.00
76049;PMS7003;64967;50.234;19.224;2023-08-06T15:13:41;0.00;0.00;0.00
76049;PMS7003;64967;50.234;19.224;2023-08-06T15:16:14;0.00;0.00;0.00
76049;PMS7003;64967;50.234;19.224;2023-08-06T15:18:44;0.00;0.00;0.00
76049;PMS7003;64967;50.234;19.224;2023-08-06T15:21:11;0.00;0.00;0.00
76049;PMS7003;64967;50.234;19.224;2023-08-06T15:23:38;0.67;0.67;0.67
76049;PMS7003;64967;50.234;19.224;2023-08-06T15:26:05;1.00;0.00;0.00
76049;PMS7003;64967;50.234;19.224;2023-08-06T15:28:32;0.00;0.00;0.00
76049;PMS7003;64967;50.234;19.224;2023-08-06T15:31:00;0.00;0.00;0.00
76049;PMS7003;64967;50.234;19.224;2023-08-06T15:33:30;0.00;0.00;0.00
76049;PMS7003;64967;50.234;19.224;2023-08-06T15:35:57;0.00;0.00;0.00
76049;PMS7003;64967;50.234;19.224;2023-08-06T15:38:24;0.00;0.00;0.00
76049;PMS7003;64967;50.234;19.224;2023-08-06T15:40:51;1.00;0.00;0.00
76049;PMS7003;64967;50.234;19.224;2023-08-06T15:43:19;0.00;0.00;0.00
76049;PMS7003;64967;50.234;19.224;2023-08-06T15:45:46;0.00;0.00;0.00
76049;PMS7003;64967;50.234;19.224;2023-08-06T15:48:13;0.00;0.00;0.00
76049;PMS7003;64967;50.234;19.224;2023-08-06T15:50:40;0.00;0.00;0.00
76049;PMS7003;64967;50.234;19.224;2023-08-06T15:53:11;0.00;0.00;0.00
76049;PMS7003;64967;50.234;19.224;2023-08-06T15:55:38;0.00;0.00;0.00
76049;PMS7003;64967;50.234;19.224;2023-08-06T15:58:05;0.00;0.00;0.00
76049;PMS7003;64967;50.234;19.224;2023-08-06T16:00:32;0.00;0.00;0.00
76049;PMS7003;64967;50.234;19.224;2023-08-06T16:03:00;0.00;0.00;0.00
76049;PMS7003;64967;50.234;19.224;2023-08-06T16:05:28;0.00;0.00;0.00
76049;PMS7003;64967;50.234;19.224;2023-08-06T16:07:57;0.00;0.00;0.00
76049;PMS7003;64967;50.234;19.224;2023-08-06T16:10:24;0.00;0.00;0.00
76049;PMS7003;64967;50.234;19.224;2023-08-06T16:12:51;0.00;0.00;0.00
76049;PMS7003;64967;50.234;19.224;2023-08-06T16:15:18;0.00;0.00;0.00
76049;PMS7003;64967;50.234;19.224;2023-08-06T16:17:46;1.00;0.67;0.00
76049;PMS7003;64967;50.234;19.224;2023-08-06T16:20:13;0.00;0.00;0.00
76049;PMS7003;64967;50.234;19.224;2023-08-06T16:22:41;0.00;0.00;0.00
76049;PMS7003;64967;50.234;19.224;2023-08-06T16:25:08;0.00;0.00;0.00
76049;PMS7003;64967;50.234;19.224;2023-08-06T16:27:39;0.00;0.00;0.00
76049;PMS7003;64967;50.234;19.224;2023-08-06T16:30:06;0.00;0.00;0.00
76049;PMS7003;64967;50.234;19.224;2023-08-06T16:32:34;0.00;0.00;0.00
76049;PMS7003;64967;50.234;19.224;2023-08-06T16:35:02;0.00;0.00;0.00
76049;PMS7003;64967;50.234;19.224;2023-08-06T16:37:30;0.33;0.00;0.00
76049;PMS7003;64967;50.234;19.224;2023-08-06T16:39:57;0.00;0.00;0.00
76049;PMS7003;64967;50.234;19.224;2023-08-06T16:42:24;0.00;0.00;0.00
76049;PMS7003;64967;50.234;19.224;2023-08-06T16:44:51;0.00;0.00;0.00
76049;PMS7003;64967;50.234;19.224;2023-08-06T16:47:18;0.00;0.00;0.00
76049;PMS7003;64967;50.234;19.224;2023-08-06T16:49:45;0.00;0.00;0.00
76049;PMS7003;64967;50.234;19.224;2023-08-06T16:52:13;0.00;0.00;0.00
76049;PMS7003;64967;50.234;19.224;2023-08-06T16:54:40;0.00;0.00;0.00
76049;PMS7003;64967;50.234;19.224;2023-08-06T16:57:12;0.00;0.00;0.00
76049;PMS7003;64967;50.234;19.224;2023-08-06T17:00:16;0.33;0.00;0.00
76049;PMS7003;64967;50.234;19.224;2023-08-06T17:02:44;0.00;0.00;0.00
76049;PMS7003;64967;50.234;19.224;2023-08-06T17:05:11;1.00;0.00;0.00
76049;PMS7003;64967;50.234;19.224;2023-08-06T17:07:38;0.00;0.00;0.00
76049;PMS7003;64967;50.234;19.224;2023-08-06T17:10:05;0.00;0.00;0.00
76049;PMS7003;64967;50.234;19.224;2023-08-06T17:12:33;0.33;0.00;0.00
76049;PMS7003;64967;50.234;19.224;2023-08-06T17:15:12;0.00;0.00;0.00
76049;PMS7003;64967;50.234;19.224;2023-08-06T17:18:15;0.00;0.00;0.00
76049;PMS7003;64967;50.234;19.224;2023-08-06T17:20:44;0.00;0.00;0.00
76049;PMS7003;64967;50.234;19.224;2023-08-06T17:23:12;0.00;0.00;0.00
76049;PMS7003;64967;50.234;19.224;2023-08-06T17:25:42;0.00;0.00;0.00
76049;PMS7003;64967;50.234;19.224;2023-08-06T17:28:10;0.00;0.00;0.00
76049;PMS7003;64967;50.234;19.224;2023-08-06T17:30:41;0.00;0.00;0.00
76049;PMS7003;64967;50.234;19.224;2023-08-06T17:33:09;0.00;0.00;0.00
76049;PMS7003;64967;50.234;19.224;2023-08-06T17:35:41;0.00;0.00;0.00
76049;PMS7003;64967;50.234;19.224;2023-08-06T17:38:10;0.00;0.00;0.00
76049;PMS7003;64967;50.234;19.224;2023-08-06T17:40:38;0.00;0.00;0.00
76049;PMS7003;64967;50.234;19.224;2023-08-06T17:43:05;0.00;0.00;0.00
76049;PMS7003;64967;50.234;19.224;2023-08-06T17:45:33;0.00;0.00;0.00
76049;PMS7003;64967;50.234;19.224;2023-08-06T17:48:00;0.00;0.00;0.00
76049;PMS7003;64967;50.234;19.224;2023-08-06T17:50:27;1.00;0.00;0.00
76049;PMS7003;64967;50.234;19.224;2023-08-06T17:52:55;0.00;0.00;0.00
76049;PMS7003;64967;50.234;19.224;2023-08-06T17:55:23;0.00;0.00;0.00
76049;PMS7003;64967;50.234;19.224;2023-08-06T17:57:50;0.00;0.00;0.00
76049;PMS7003;64967;50.234;19.224;2023-08-06T18:00:17;0.00;0.00;0.00
76049;PMS7003;64967;50.234;19.224;2023-08-06T18:02:44;0.00;0.00;0.00
76049;PMS7003;64967;50.234;19.224;2023-08-06T18:05:28;0.00;0.00;0.00
76049;PMS7003;64967;50.234;19.224;2023-08-06T18:07:58;0.67;0.00;0.00
76049;PMS7003;64967;50.234;19.224;2023-08-06T18:10:25;0.00;0.00;0.00
76049;PMS7003;64967;50.234;19.224;2023-08-06T18:12:52;0.00;0.00;0.00
76049;PMS7003;64967;50.234;19.224;2023-08-06T18:15:19;0.00;0.00;0.00
76049;PMS7003;64967;50.234;19.224;2023-08-06T18:17:47;0.00;0.00;0.00
76049;PMS7003;64967;50.234;19.224;2023-08-06T18:20:14;0.00;0.00;0.00
76049;PMS7003;64967;50.234;19.224;2023-08-06T18:22:41;0.00;0.00;0.00
76049;PMS7003;64967;50.234;19.224;2023-08-06T18:25:08;0.00;0.00;0.00
76049;PMS7003;64967;50.234;19.224;2023-08-06T18:27:35;0.00;0.00;0.00
76049;PMS7003;64967;50.234;19.224;2023-08-06T18:30:03;0.00;0.00;0.00